Time;durP1;ratioP1;P1;durP2;ratioP2;P2;SDS_P1;SDS_P2;PMS_P1;PMS_P2;Temp;Humidity;BMP_temperature;BMP_pressure;BME280_temperature;BME280_humidity;BME280_pressure;Samples;Min_cycle;Max_cycle;Signal;HPM_P1;HPM_P2
2021/12/06 00:01:09;;;;;;;0.80;0.70;;;;;;;22.66;36.73;98467.72;1844586;77;28088;-61
2021/12/06 00:04:00;;;;;;;0.90;0.90;;;;;;;22.67;36.72;98465.28;1853891;77;28128;-62
2021/12/06 00:06:53;;;;;;;0.80;0.80;;;;;;;22.65;36.76;98463.34;1864189;76;28340;-62
2021/12/06 00:09:42;;;;;;;0.72;0.72;;;;;;;22.66;36.76;98478.67;1847166;77;28108;-62
2021/12/06 00:12:30;;;;;;;0.60;0.60;;;;;;;22.67;36.76;98484.97;1841939;77;28056;-62
2021/12/06 00:15:19;;;;;;;0.70;0.70;;;;;;;22.69;36.74;98481.43;1836837;77;28192;-62
2021/12/06 00:18:07;;;;;;;0.80;0.80;;;;;;;22.72;36.70;98485.03;1854789;77;28260;-62
2021/12/06 00:20:56;;;;;;;0.80;0.80;;;;;;;22.71;36.72;98479.83;1869216;76;28088;-63
2021/12/06 00:23:44;;;;;;;0.70;0.70;;;;;;;22.72;36.70;98485.56;1855456;76;28095;-62
2021/12/06 00:26:33;;;;;;;0.88;0.85;;;;;;;22.72;36.68;98491.87;1847895;76;28197;-62
2021/12/06 00:29:22;;;;;;;0.75;0.70;;;;;;;22.75;36.68;98501.48;1867941;76;28103;-62
2021/12/06 00:32:11;;;;;;;1.07;0.78;;;;;;;22.73;36.68;98499.02;1854267;76;28147;-62
2021/12/06 00:34:59;;;;;;;0.77;0.77;;;;;;;22.78;36.64;98493.55;1837150;77;28205;-62
2021/12/06 00:37:56;;;;;;;0.70;0.70;;;;;;;22.78;36.59;98493.55;1836164;77;28053;-62
2021/12/06 00:40:46;;;;;;;0.80;0.80;;;;;;;22.76;36.64;98494.91;1846878;77;28081;-64
2021/12/06 00:43:35;;;;;;;0.70;0.70;;;;;;;22.75;36.66;98487.25;1855252;76;28212;-64
2021/12/06 00:46:24;;;;;;;0.80;0.80;;;;;;;22.75;36.65;98492.73;1857235;77;28069;-62
2021/12/06 00:49:12;;;;;;;0.67;0.67;;;;;;;22.76;36.63;98483.95;1861227;76;28082;-62
2021/12/06 00:52:00;;;;;;;0.83;0.60;;;;;;;22.78;36.65;98490.82;1857318;76;28209;-62
2021/12/06 00:54:50;;;;;;;0.70;0.70;;;;;;;22.81;36.59;98490.84;1862675;76;28132;-63
2021/12/06 00:57:39;;;;;;;0.80;0.80;;;;;;;22.80;36.63;98491.38;1857002;76;28221;-63
2021/12/06 01:00:36;;;;;;;0.70;0.70;;;;;;;22.79;36.61;98491.12;1873964;76;28366;-62
2021/12/06 01:03:28;;;;;;;0.78;0.78;;;;;;;22.81;36.60;98499.89;1845014;76;28252;-64
2021/12/06 01:06:17;;;;;;;0.68;0.68;;;;;;;22.84;36.58;98499.92;1865342;76;28004;-64
2021/12/06 01:09:05;;;;;;;0.60;0.60;;;;;;;22.82;36.60;98507.03;1863983;76;28076;-63
2021/12/06 01:11:54;;;;;;;0.70;0.70;;;;;;;22.85;36.57;98512.53;1856903;76;28154;-63
2021/12/06 01:14:42;;;;;;;0.62;0.62;;;;;;;22.85;36.55;98510.60;1872139;76;28114;-63
2021/12/06 01:17:31;;;;;;;0.75;0.75;;;;;;;22.86;36.54;98514.17;1878443;76;28107;-64
2021/12/06 01:20:27;;;;;;;0.70;0.70;;;;;;;22.86;36.58;98512.80;1878672;76;28201;-63
2021/12/06 01:23:15;;;;;;;0.70;0.70;;;;;;;22.89;36.55;98521.87;1852037;76;28253;-63
2021/12/06 01:40:51;;;;;;;0.68;0.68;;;;;;;22.94;36.47;98548.75;1857254;76;28125;-62
2021/12/06 01:43:59;;;;;;;0.62;0.62;;;;;;;22.92;36.52;98552.86;1860380;76;28228;-62
2021/12/06 01:46:50;;;;;;;1.10;0.70;;;;;;;22.94;36.49;98563.01;1878551;76;28134;-62
2021/12/06 01:49:42;;;;;;;0.60;0.60;;;;;;;22.91;36.51;98561.61;1878291;76;28098;-63
2021/12/06 01:52:34;;;;;;;0.70;0.70;;;;;;;22.93;36.50;98566.28;1857191;76;28043;-63
2021/12/06 01:55:25;;;;;;;0.80;0.80;;;;;;;22.97;36.50;98576.99;1876620;76;28119;-63
2021/12/06 01:58:15;;;;;;;0.50;0.50;;;;;;;22.98;36.44;98569.61;1865249;76;28110;-63
2021/12/06 02:01:04;;;;;;;1.30;0.65;;;;;;;23.00;36.45;98586.08;1860017;76;28496;-63
2021/12/06 02:03:54;;;;;;;0.60;0.60;;;;;;;23.00;36.43;98579.76;1878155;76;28067;-64
2021/12/06 02:06:44;;;;;;;1.00;0.80;;;;;;;23.03;36.42;98580.63;1857377;76;28191;-63
2021/12/06 02:09:34;;;;;;;0.70;0.70;;;;;;;23.00;36.42;98587.44;1878256;76;28088;-64
2021/12/06 02:12:28;;;;;;;0.60;0.60;;;;;;;23.04;36.41;98594.05;1878468;76;28055;-62
2021/12/06 02:15:41;;;;;;;0.60;0.60;;;;;;;23.05;36.38;98592.14;1846576;77;28197;-62
2021/12/06 02:18:41;;;;;;;0.70;0.70;;;;;;;23.08;36.33;98588.33;1874065;76;28111;-63
2021/12/06 02:21:27;;;;;;;0.57;0.57;;;;;;;23.06;36.34;98590.50;1857428;76;28229;-62
2021/12/06 02:24:16;;;;;;;0.60;0.60;;;;;;;23.06;36.37;98601.45;1878476;76;28047;-63
2021/12/06 02:27:09;;;;;;;0.70;0.70;;;;;;;23.06;36.39;98601.45;1861185;76;28092;-62
2021/12/06 02:30:00;;;;;;;0.50;0.50;;;;;;;23.07;36.36;98598.18;1867856;76;28146;-62
2021/12/06 02:32:52;;;;;;;0.70;0.70;;;;;;;23.07;36.33;98592.70;1867973;76;28256;-62
2021/12/06 02:35:41;;;;;;;0.60;0.60;;;;;;;23.06;36.34;98589.13;1866444;76;28136;-62
2021/12/06 02:38:32;;;;;;;0.80;0.67;;;;;;;23.08;36.35;98593.00;1862366;76;28142;-64
2021/12/06 02:41:23;;;;;;;0.70;0.70;;;;;;;23.08;36.32;98609.44;1878518;76;28129;-64
2021/12/06 02:44:12;;;;;;;0.53;0.53;;;;;;;23.11;36.32;98603.42;1878322;76;28151;-62
2021/12/06 02:47:01;;;;;;;0.60;0.60;;;;;;;23.10;36.31;98596.30;1878444;76;28199;-62
2021/12/06 02:49:51;;;;;;;0.70;0.70;;;;;;;23.12;36.30;98606.45;1861718;76;28091;-62
2021/12/06 02:52:40;;;;;;;0.70;0.70;;;;;;;23.13;36.29;98602.61;1856990;76;28165;-62
2021/12/06 02:55:35;;;;;;;0.65;0.65;;;;;;;23.11;36.29;98608.89;1873772;76;28055;-62
2021/12/06 03:01:35;;;;;;;0.50;0.50;;;;;;;23.12;36.27;98607.83;1846676;77;28214;-63
2021/12/06 03:04:25;;;;;;;0.60;0.60;;;;;;;23.11;36.32;98612.47;1861039;76;28056;-63
2021/12/06 03:07:19;;;;;;;0.60;0.60;;;;;;;23.13;36.29;98615.77;1857188;76;28081;-62
2021/12/06 03:10:09;;;;;;;0.60;0.60;;;;;;;23.15;36.24;98621.02;1872770;76;28128;-62
2021/12/06 03:12:57;;;;;;;0.68;0.68;;;;;;;23.14;36.33;98622.92;1857688;76;28142;-62
2021/12/06 03:15:46;;;;;;;0.50;0.50;;;;;;;23.14;36.30;98620.18;1877339;76;28124;-62
2021/12/06 03:18:35;;;;;;;0.60;0.60;;;;;;;23.15;36.30;98625.92;1878238;76;28558;-62
2021/12/06 03:21:26;;;;;;;0.60;0.60;;;;;;;23.17;36.22;98620.20;1875640;76;28056;-62
2021/12/06 03:24:14;;;;;;;0.70;0.70;;;;;;;23.15;36.25;98619.64;1845746;77;28176;-62
2021/12/06 03:27:05;;;;;;;0.67;0.67;;;;;;;23.20;36.17;98634.73;1860120;76;28170;-62
2021/12/06 03:29:54;;;;;;;0.60;0.60;;;;;;;23.17;36.20;98628.42;1874575;76;28091;-62
2021/12/06 03:32:42;;;;;;;0.60;0.60;;;;;;;23.19;36.18;98633.09;1878669;76;28083;-63
2021/12/06 03:35:32;;;;;;;0.60;0.60;;;;;;;23.16;36.21;98624.85;1860292;76;28169;-63
2021/12/06 03:38:21;;;;;;;0.60;0.60;;;;;;;23.20;36.17;98630.63;1860584;76;28169;-61
2021/12/06 03:41:12;;;;;;;0.60;0.60;;;;;;;23.20;36.14;98631.45;1872021;76;28287;-62
2021/12/06 03:44:01;;;;;;;0.70;0.70;;;;;;;23.21;36.16;98630.38;1854901;76;28284;-62
2021/12/06 03:46:53;;;;;;;0.53;0.53;;;;;;;23.18;36.13;98635.00;1864583;76;38892;-63
2021/12/06 03:49:45;;;;;;;0.60;0.60;;;;;;;23.18;36.13;98636.91;1878457;76;28115;-64
2021/12/06 03:52:36;;;;;;;0.88;0.60;;;;;;;23.17;36.17;98640.75;1844561;76;28136;-62
2021/12/06 03:55:26;;;;;;;0.65;0.65;;;;;;;23.17;36.13;98639.38;1854569;77;28118;-62
2021/12/06 03:58:15;;;;;;;0.60;0.60;;;;;;;23.16;36.10;98638.55;1844052;77;28144;-63
2021/12/06 04:01:06;;;;;;;0.60;0.60;;;;;;;23.19;36.10;98646.80;1850871;76;28125;-62
2021/12/06 04:03:55;;;;;;;0.60;0.60;;;;;;;23.19;36.09;98646.80;1866444;76;28077;-64
2021/12/06 04:06:45;;;;;;;0.70;0.70;;;;;;;23.18;36.07;98645.13;1847713;76;28223;-62
2021/12/06 04:09:34;;;;;;;0.70;0.70;;;;;;;23.18;36.04;98647.33;1851978;76;28205;-63
2021/12/06 04:12:24;;;;;;;0.60;0.60;;;;;;;23.23;36.02;98655.61;1856877;77;28510;-64
2021/12/06 04:15:14;;;;;;;0.75;0.75;;;;;;;23.22;36.00;98656.69;1858635;76;28208;-64
2021/12/06 04:18:03;;;;;;;0.60;0.60;;;;;;;23.23;36.00;98662.46;1835788;77;28135;-62
2021/12/06 04:20:53;;;;;;;0.70;0.70;;;;;;;23.22;35.98;98655.88;1868976;76;28193;-62
2021/12/06 04:23:44;;;;;;;0.70;0.70;;;;;;;23.21;35.96;98660.52;1844391;77;28127;-63
2021/12/06 04:26:33;;;;;;;0.70;0.70;;;;;;;23.21;35.98;98670.12;1857257;77;28126;-64
2021/12/06 04:29:23;;;;;;;0.70;0.70;;;;;;;23.24;35.98;98667.41;1855106;77;28108;-62
2021/12/06 04:32:13;;;;;;;0.98;0.70;;;;;;;23.24;35.93;98682.47;1842261;77;28140;-62
2021/12/06 04:35:02;;;;;;;0.80;0.80;;;;;;;23.23;35.98;98685.75;1837214;77;28080;-62
2021/12/06 04:37:52;;;;;;;0.78;0.78;;;;;;;23.24;35.92;98682.47;1858705;76;28142;-62
2021/12/06 04:40:41;;;;;;;0.60;0.60;;;;;;;23.25;35.90;98693.16;1846967;77;28131;-63
2021/12/06 04:43:30;;;;;;;0.70;0.70;;;;;;;23.25;35.89;98695.91;1853877;76;28037;-63
2021/12/06 04:46:19;;;;;;;0.60;0.60;;;;;;;23.24;35.90;98695.61;1836594;77;28053;-62
2021/12/06 04:49:08;;;;;;;0.70;0.70;;;;;;;23.23;35.89;98704.93;1864127;76;28170;-63
2021/12/06 04:52:00;;;;;;;0.70;0.70;;;;;;;23.23;35.85;98700.82;1846397;77;28065;-63
2021/12/06 04:54:54;;;;;;;0.70;0.70;;;;;;;23.26;35.87;98709.07;1841452;77;28127;-64
2021/12/06 04:57:45;;;;;;;0.75;0.75;;;;;;;23.26;35.82;98705.80;1836894;77;28181;-63
2021/12/06 05:00:40;;;;;;;0.78;0.78;;;;;;;23.25;35.81;98706.86;1863346;76;28169;-63
2021/12/06 05:03:30;;;;;;;0.73;0.73;;;;;;;23.26;35.83;98719.50;1842940;77;28127;-63
2021/12/06 05:06:24;;;;;;;0.63;0.63;;;;;;;23.24;35.87;98719.47;1863625;76;28100;-62
2021/12/06 05:09:28;;;;;;;0.70;0.70;;;;;;;23.26;35.82;98728.25;1862604;76;28126;-63
2021/12/06 05:12:20;;;;;;;0.70;0.70;;;;;;;23.23;35.85;98729.59;1837348;77;28099;-63
2021/12/06 05:15:10;;;;;;;0.70;0.70;;;;;;;23.22;35.85;98732.03;1863765;76;28135;-62
2021/12/06 05:17:58;;;;;;;0.70;0.70;;;;;;;23.23;35.83;98730.96;1856186;76;28069;-62
2021/12/06 05:20:48;;;;;;;0.72;0.72;;;;;;;23.25;35.80;98737.54;1841448;77;28292;-62
2021/12/06 05:23:38;;;;;;;1.20;0.70;;;;;;;23.25;35.82;98737.54;1854580;76;28047;-62
2021/12/06 05:26:28;;;;;;;0.75;0.75;;;;;;;23.25;35.79;98752.08;1847805;76;28096;-63
2021/12/06 05:29:23;;;;;;;1.20;0.80;;;;;;;23.23;35.81;98756.16;1860072;76;28400;-63
2021/12/06 05:32:13;;;;;;;0.93;0.83;;;;;;;23.25;35.74;98755.35;1854769;76;28076;-62
2021/12/06 05:35:07;;;;;;;0.82;0.82;;;;;;;23.24;35.75;98764.11;1857695;76;28193;-64
2021/12/06 05:37:57;;;;;;;0.78;0.78;;;;;;;23.26;35.72;98769.35;1862871;76;28224;-64
2021/12/06 05:40:47;;;;;;;0.70;0.70;;;;;;;23.25;35.74;98769.05;1851904;77;28139;-62
2021/12/06 05:43:36;;;;;;;0.75;0.75;;;;;;;23.25;35.70;98776.73;1837156;77;28152;-62
2021/12/06 05:46:25;;;;;;;0.70;0.70;;;;;;;23.27;35.69;98777.84;1856903;77;28108;-62
2021/12/06 05:49:14;;;;;;;0.80;0.80;;;;;;;23.29;35.68;98782.55;1855774;77;28068;-62
2021/12/06 05:52:03;;;;;;;0.85;0.85;;;;;;;23.28;35.63;98796.79;1868259;76;28092;-62
2021/12/06 05:54:53;;;;;;;0.70;0.70;;;;;;;23.27;35.65;98792.38;1842452;77;28143;-62
2021/12/06 05:57:42;;;;;;;0.60;0.60;;;;;;;23.29;35.56;98799.80;1836631;77;28211;-62
2021/12/06 06:00:33;;;;;;;0.80;0.80;;;;;;;23.28;35.63;98806.91;1862442;76;28202;-62
2021/12/06 06:03:22;;;;;;;0.70;0.70;;;;;;;23.28;35.60;98809.12;1856468;76;28123;-62
2021/12/06 06:06:11;;;;;;;0.72;0.72;;;;;;;23.30;35.58;98805.58;1853628;76;28120;-62
2021/12/06 06:09:02;;;;;;;1.25;0.80;;;;;;;23.28;35.56;98816.51;1858903;76;28270;-63
2021/12/06 06:11:51;;;;;;;0.90;0.80;;;;;;;23.28;35.58;98822.82;1830259;77;28078;-62
2021/12/06 06:14:40;;;;;;;1.12;1.12;;;;;;;23.29;35.48;98817.61;1851682;77;28097;-63
2021/12/06 06:17:38;;;;;;;1.12;1.12;;;;;;;23.21;34.91;98811.76;1868306;76;28164;-65
2021/12/06 06:20:22;;;;;;;0.95;0.95;;;;;;;23.21;34.52;98827.66;1858942;76;28276;-63
2021/12/06 06:23:10;;;;;;;1.10;1.07;;;;;;;23.12;34.02;98822.34;1850891;77;28132;-64
2021/12/06 06:25:59;;;;;;;1.00;1.00;;;;;;;23.10;33.78;98829.16;1849286;77;28256;-65
2021/12/06 06:28:49;;;;;;;1.10;1.00;;;;;;;23.09;33.65;98839.28;1861525;76;28132;-63
2021/12/06 06:31:39;;;;;;;1.25;1.25;;;;;;;23.09;33.59;98839.81;1859278;76;28184;-64
2021/12/06 06:34:29;;;;;;;0.80;0.80;;;;;;;23.09;33.53;98852.14;1847090;77;28160;-64
2021/12/06 06:37:18;;;;;;;0.80;0.80;;;;;;;23.10;33.50;98852.44;1850186;77;28147;-63
2021/12/06 06:40:07;;;;;;;0.90;0.90;;;;;;;23.09;33.52;98856.25;1851562;76;28072;-63
2021/12/06 06:42:57;;;;;;;0.90;0.90;;;;;;;23.08;33.56;98869.68;1839187;76;28665;-63
2021/12/06 06:45:46;;;;;;;0.80;0.80;;;;;;;23.07;33.57;98866.64;1847134;77;28212;-65
2021/12/06 06:48:35;;;;;;;1.07;0.98;;;;;;;23.07;33.63;98869.38;1882354;75;28121;-64
2021/12/06 06:51:27;;;;;;;0.90;0.90;;;;;;;23.04;33.55;98872.08;1856959;77;28120;-66
2021/12/06 06:54:16;;;;;;;0.90;0.90;;;;;;;23.02;33.55;98879.72;1855711;76;28175;-64
2021/12/06 06:57:06;;;;;;;0.98;0.98;;;;;;;22.98;33.56;98885.42;1865856;76;28221;-64
2021/12/06 06:59:54;;;;;;;1.20;0.97;;;;;;;22.98;33.59;98885.96;1863962;75;28169;-63
2021/12/06 07:02:43;;;;;;;0.90;0.80;;;;;;;22.98;33.60;98892.27;1861962;75;28141;-64
2021/12/06 07:05:31;;;;;;;1.00;0.90;;;;;;;23.00;33.64;98897.48;1848414;76;28161;-63
2021/12/06 07:08:20;;;;;;;1.90;0.80;;;;;;;22.97;33.67;98906.20;1848002;76;28153;-63
2021/12/06 07:11:10;;;;;;;0.93;0.90;;;;;;;22.99;33.64;98912.25;1826241;78;28160;-63
2021/12/06 07:13:59;;;;;;;0.93;0.93;;;;;;;22.97;33.68;98916.63;1851871;76;28859;-64
2021/12/06 07:16:49;;;;;;;0.82;0.82;;;;;;;22.98;33.72;98926.51;1849502;77;28206;-62
2021/12/06 07:19:38;;;;;;;1.30;0.82;;;;;;;22.92;33.84;98923.95;1867196;76;28087;-63
2021/12/06 07:22:26;;;;;;;0.88;0.88;;;;;;;22.91;33.88;98934.06;1852850;76;28153;-64
2021/12/06 07:25:17;;;;;;;1.15;1.05;;;;;;;22.91;33.92;98935.44;1844284;76;28136;-63
2021/12/06 07:28:08;;;;;;;1.00;1.00;;;;;;;22.89;34.04;98934.03;1849702;77;28206;-65
2021/12/06 07:30:58;;;;;;;1.50;1.40;;;;;;;22.89;34.16;98943.08;1858389;76;28113;-65
2021/12/06 07:33:48;;;;;;;1.50;1.40;;;;;;;22.90;34.34;98949.36;1848284;76;28158;-64
2021/12/06 07:36:37;;;;;;;2.97;1.53;;;;;;;22.88;34.51;98948.78;1844605;76;28029;-63
2021/12/06 07:39:26;;;;;;;1.98;1.25;;;;;;;22.88;34.64;98958.38;1852334;76;28265;-64
2021/12/06 07:42:15;;;;;;;1.37;1.20;;;;;;;22.84;34.77;98962.70;1847051;77;28387;-64
2021/12/06 07:45:06;;;;;;;2.02;1.30;;;;;;;22.88;34.92;98960.58;1853253;76;28183;-65
2021/12/06 07:47:55;;;;;;;1.52;1.10;;;;;;;22.94;34.94;98977.37;1830202;77;28118;-63
2021/12/06 07:50:44;;;;;;;1.20;1.10;;;;;;;22.94;34.92;98981.48;1846261;77;28265;-64
2021/12/06 07:53:35;;;;;;;0.95;0.95;;;;;;;22.99;34.92;98987.05;1857753;76;28108;-65
2021/12/06 07:56:23;;;;;;;1.22;1.10;;;;;;;22.93;35.05;98993.53;1853092;76;28146;-65
2021/12/06 07:59:13;;;;;;;1.32;1.20;;;;;;;22.86;35.22;99001.08;1855731;76;28148;-65
2021/12/06 08:02:03;;;;;;;1.20;1.00;;;;;;;22.87;35.19;98997.24;1843128;76;28259;-64
2021/12/06 08:05:29;;;;;;;1.00;1.00;;;;;;;22.90;35.20;99004.14;1858072;76;28097;-65
2021/12/06 08:07:42;;;;;;;1.00;1.00;;;;;;;22.91;35.16;99005.28;1853121;76;28233;-64
2021/12/06 08:10:33;;;;;;;2.50;1.00;;;;;;;22.90;35.16;99006.34;1858212;76;28314;-64
2021/12/06 08:13:24;;;;;;;2.00;1.20;;;;;;;22.92;35.19;99016.51;1849466;76;28176;-64
2021/12/06 08:16:15;;;;;;;1.15;1.00;;;;;;;22.94;35.14;99017.65;1867459;76;28138;-64
2021/12/06 08:19:04;;;;;;;1.45;1.00;;;;;;;22.91;35.20;99016.77;1868798;76;28218;-64
2021/12/06 08:21:52;;;;;;;1.20;1.10;;;;;;;22.85;35.32;99024.62;1838597;76;28175;-65
2021/12/06 08:24:40;;;;;;;1.80;1.20;;;;;;;22.88;35.31;99026.84;1861331;76;28137;-65
2021/12/06 08:27:29;;;;;;;1.75;1.07;;;;;;;22.91;35.27;99037.30;1857071;76;28107;-65
2021/12/06 08:30:22;;;;;;;0.93;0.93;;;;;;;22.90;35.23;99046.05;1847184;76;28109;-64
2021/12/06 08:33:09;;;;;;;1.65;0.90;;;;;;;22.88;35.30;99046.84;1867920;76;28271;-63
2021/12/06 08:35:58;;;;;;;1.20;1.10;;;;;;;22.84;35.40;99055.27;1865968;76;28232;-64
2021/12/06 08:38:49;;;;;;;1.15;1.12;;;;;;;22.86;35.40;99059.95;1856232;76;37507;-65
2021/12/06 08:41:38;;;;;;;1.30;1.20;;;;;;;22.88;35.34;99059.70;1851273;76;28102;-64
2021/12/06 08:44:26;;;;;;;1.50;1.40;;;;;;;22.86;35.38;99057.22;1866278;76;28128;-65
2021/12/06 08:47:16;;;;;;;1.62;1.22;;;;;;;22.84;35.39;99067.59;1858523;76;28141;-66
2021/12/06 08:50:08;;;;;;;1.40;1.30;;;;;;;22.85;35.41;99069.23;1855778;76;28115;-64
2021/12/06 08:52:57;;;;;;;1.80;1.70;;;;;;;22.86;35.40;99075.55;1863428;76;28138;-65
2021/12/06 08:55:46;;;;;;;2.23;1.87;;;;;;;22.90;35.41;99084.40;1868901;76;28173;-65
2021/12/06 08:58:36;;;;;;;2.22;1.90;;;;;;;22.84;35.45;99084.56;1870016;75;28288;-66
2021/12/06 09:01:26;;;;;;;2.30;1.75;;;;;;;22.86;35.46;99088.72;1861414;76;28319;-66
2021/12/06 09:04:15;;;;;;;2.37;2.00;;;;;;;22.85;35.48;99084.30;1871128;76;28187;-65
2021/12/06 09:07:12;;;;;;;2.20;2.05;;;;;;;22.83;35.50;99079.61;1873069;76;28397;-65
2021/12/06 09:10:00;;;;;;;2.20;2.10;;;;;;;22.85;35.50;99092.52;1868315;76;28163;-65
2021/12/06 09:12:51;;;;;;;2.47;1.90;;;;;;;22.79;35.62;99089.41;1863008;76;28309;-65
2021/12/06 09:15:40;;;;;;;3.10;2.37;;;;;;;22.83;35.50;99097.41;1858988;76;28073;-65
2021/12/06 09:18:30;;;;;;;3.70;2.87;;;;;;;22.85;35.53;99101.30;1878344;76;28161;-65
2021/12/06 09:21:26;;;;;;;4.30;2.95;;;;;;;22.80;35.63;99107.48;1875848;76;28136;-64
2021/12/06 09:24:13;;;;;;;4.37;2.80;;;;;;;22.86;35.51;99108.42;1870147;76;28127;-65
2021/12/06 09:27:03;;;;;;;2.73;2.50;;;;;;;22.83;35.56;99115.22;1878269;76;28251;-64
2021/12/06 09:29:51;;;;;;;2.83;2.60;;;;;;;22.82;35.60;99113.57;1867687;76;28260;-64
2021/12/06 09:32:41;;;;;;;3.00;2.70;;;;;;;22.82;35.59;99120.41;1850130;76;28266;-64
2021/12/06 09:35:30;;;;;;;4.47;3.40;;;;;;;22.82;35.61;99123.69;1859699;76;28234;-64
2021/12/06 09:38:28;;;;;;;4.15;3.47;;;;;;;22.83;35.56;99121.22;1860171;76;28235;-64
2021/12/06 09:41:25;;;;;;;4.45;3.58;;;;;;;22.81;35.63;99134.33;1876385;76;28213;-64
2021/12/06 09:44:09;;;;;;;3.40;3.10;;;;;;;22.78;35.65;99132.11;1856771;76;28302;-64
2021/12/06 09:46:58;;;;;;;3.70;3.30;;;;;;;22.79;35.61;99142.80;1857876;76;28194;-66
2021/12/06 09:49:47;;;;;;;3.40;3.10;;;;;;;22.81;35.59;99143.92;1863917;76;28162;-64
2021/12/06 09:52:36;;;;;;;3.42;3.10;;;;;;;22.81;35.61;99150.23;1856744;76;28128;-65
2021/12/06 09:55:29;;;;;;;3.20;3.00;;;;;;;22.80;35.62;99156.77;1868627;76;28117;-66
2021/12/06 09:58:19;;;;;;;3.60;3.30;;;;;;;22.77;35.71;99158.66;1858451;76;28222;-65
2021/12/06 10:01:15;;;;;;;8.47;3.87;;;;;;;22.81;35.59;99161.19;1868226;76;28141;-64
2021/12/06 10:04:07;;;;;;;3.95;3.65;;;;;;;22.77;35.66;99155.91;1868683;76;28204;-65
2021/12/06 10:06:58;;;;;;;3.95;3.60;;;;;;;22.82;35.54;99161.49;1878312;76;28241;-65
2021/12/06 10:09:49;;;;;;;4.25;3.77;;;;;;;22.83;35.53;99164.51;1878120;76;28164;-66
2021/12/06 10:12:37;;;;;;;3.72;3.40;;;;;;;22.81;35.56;99156.24;1878376;76;28197;-64
2021/12/06 10:15:28;;;;;;;4.00;3.70;;;;;;;22.81;35.58;99158.45;1846203;76;28191;-65
2021/12/06 10:18:20;;;;;;;3.92;3.58;;;;;;;22.84;35.50;99158.50;1855740;76;28149;-65
2021/12/06 10:21:09;;;;;;;3.90;3.60;;;;;;;22.80;35.59;99155.41;1857604;76;28198;-65
2021/12/06 10:23:58;;;;;;;4.15;3.77;;;;;;;22.81;35.63;99161.72;1876040;76;31160;-65
2021/12/06 10:26:47;;;;;;;4.17;3.87;;;;;;;22.83;35.53;99159.56;1856880;76;28292;-64
2021/12/06 10:29:40;;;;;;;4.00;3.60;;;;;;;22.83;35.58;99161.77;1856740;76;28267;-64
2021/12/06 10:32:32;;;;;;;3.85;3.58;;;;;;;22.84;35.52;99158.50;1858844;76;28190;-64
2021/12/06 10:35:23;;;;;;;3.90;3.52;;;;;;;22.85;35.47;99158.25;1878215;76;28215;-65
2021/12/06 10:38:14;;;;;;;3.75;3.45;;;;;;;22.87;35.42;99167.05;1857016;76;28233;-64
2021/12/06 10:41:06;;;;;;;4.22;3.80;;;;;;;22.88;35.45;99167.35;1872692;76;28282;-64
2021/12/06 10:43:58;;;;;;;4.60;3.92;;;;;;;22.90;35.31;99167.09;1865711;76;28205;-65
2021/12/06 10:46:49;;;;;;;4.72;4.28;;;;;;;22.87;35.32;99164.30;1878518;76;28125;-64
2021/12/06 10:49:38;;;;;;;6.45;4.70;;;;;;;22.87;35.31;99181.30;1866839;76;28200;-64
2021/12/06 10:52:28;;;;;;;6.85;4.90;;;;;;;22.90;35.40;99179.42;1851786;76;28139;-66
2021/12/06 10:55:18;;;;;;;5.30;4.80;;;;;;;22.86;35.31;99172.78;1856066;76;28350;-64
2021/12/06 10:58:09;;;;;;;5.47;4.95;;;;;;;22.89;35.31;99175.03;1845609;77;28598;-65
2021/12/06 11:01:03;;;;;;;5.28;4.78;;;;;;;22.89;35.30;99175.88;1858023;76;28268;-65
2021/12/06 11:03:54;;;;;;;5.40;4.90;;;;;;;22.89;35.30;99177.78;1856988;76;28143;-65
2021/12/06 11:06:46;;;;;;;5.30;4.80;;;;;;;22.90;35.29;99184.90;1856798;76;28309;-65
2021/12/06 11:09:37;;;;;;;5.10;4.60;;;;;;;22.87;35.29;99183.48;1859816;76;28188;-66
2021/12/06 11:12:27;;;;;;;7.03;5.08;;;;;;;22.90;35.26;99184.90;1859957;76;28166;-66
2021/12/06 11:15:15;;;;;;;5.40;4.90;;;;;;;22.89;35.27;99188.20;1855537;76;28105;-66
2021/12/06 11:18:04;;;;;;;6.37;5.00;;;;;;;22.88;35.16;99186.52;1875992;76;28092;-64
2021/12/06 11:20:53;;;;;;;5.20;4.70;;;;;;;22.89;35.19;99189.57;1861245;76;28201;-64
2021/12/06 11:24:13;;;;;;;5.97;5.03;;;;;;;22.87;35.27;99191.70;1846515;77;28219;-66
2021/12/06 11:27:21;;;;;;;5.53;5.03;;;;;;;22.87;35.24;99182.67;1859141;76;28100;-65
2021/12/06 11:30:13;;;;;;;5.40;5.00;;;;;;;22.83;35.34;99187.79;1878255;76;28215;-64
2021/12/06 11:33:02;;;;;;;5.62;5.08;;;;;;;22.83;35.32;99195.16;1857051;76;28102;-64
2021/12/06 11:35:51;;;;;;;5.97;5.37;;;;;;;22.85;35.28;99183.45;1857052;76;28250;-64
2021/12/06 11:38:39;;;;;;;6.10;5.25;;;;;;;22.87;35.20;99183.48;1861787;76;28248;-64
2021/12/06 11:41:29;;;;;;;5.90;5.33;;;;;;;22.86;35.22;99190.58;1857143;76;28200;-64
2021/12/06 11:44:21;;;;;;;6.22;5.60;;;;;;;22.88;35.33;99181.05;1857192;76;28216;-65
2021/12/06 11:47:12;;;;;;;7.50;6.10;;;;;;;22.88;35.10;99185.69;1857295;76;28179;-65
2021/12/06 11:50:01;;;;;;;6.58;5.92;;;;;;;22.86;35.17;99186.47;1862820;76;28165;-66
2021/12/06 11:52:50;;;;;;;6.00;5.40;;;;;;;22.90;35.15;99187.64;1857008;76;28162;-65
2021/12/06 11:55:45;;;;;;;5.90;5.40;;;;;;;22.90;35.08;99182.16;1873168;76;28184;-66
2021/12/06 11:58:36;;;;;;;5.67;5.15;;;;;;;22.88;35.14;99176.10;1847264;76;28242;-65
2021/12/06 12:01:30;;;;;;;6.25;5.65;;;;;;;22.88;35.13;99174.73;1861783;76;28274;-65
2021/12/06 12:04:21;;;;;;;5.92;5.08;;;;;;;22.89;35.24;99179.14;1846743;77;28268;-64
2021/12/06 12:07:09;;;;;;;6.33;5.25;;;;;;;22.92;35.10;99172.63;1853490;76;28127;-65
2021/12/06 12:09:59;;;;;;;6.72;5.60;;;;;;;22.91;35.08;99162.77;1877356;76;28175;-64
2021/12/06 12:12:52;;;;;;;5.80;5.20;;;;;;;22.91;35.08;99165.50;1863382;76;28247;-65
2021/12/06 12:15:40;;;;;;;5.70;5.20;;;;;;;22.92;35.00;99160.86;1859652;76;28149;-66
2021/12/06 12:18:33;;;;;;;6.28;5.42;;;;;;;22.90;35.03;99159.72;1874550;76;28162;-66
2021/12/06 12:21:24;;;;;;;6.15;5.55;;;;;;;22.90;35.03;99169.30;1872288;76;28522;-65
2021/12/06 12:24:12;;;;;;;6.00;5.40;;;;;;;22.92;35.09;99164.97;1860594;76;28179;-65
2021/12/06 12:27:08;;;;;;;5.85;5.28;;;;;;;22.90;35.07;99165.20;1846606;77;28249;-65
2021/12/06 12:29:54;;;;;;;5.97;5.45;;;;;;;22.89;35.02;99158.60;1846664;77;28311;-64
2021/12/06 12:32:43;;;;;;;6.20;5.60;;;;;;;22.85;35.05;99162.35;1867909;76;28131;-65
2021/12/06 12:35:32;;;;;;;5.70;5.20;;;;;;;22.88;35.04;99163.24;1864634;76;28100;-64
2021/12/06 12:38:28;;;;;;;6.47;5.35;;;;;;;22.87;35.08;99160.20;1859155;76;28235;-64
2021/12/06 12:41:19;;;;;;;6.85;5.80;;;;;;;22.88;35.05;99148.18;1857032;76;28119;-65
2021/12/06 12:44:08;;;;;;;6.35;5.75;;;;;;;22.90;35.04;99143.28;1876295;76;28196;-64
2021/12/06 12:46:56;;;;;;;6.07;5.47;;;;;;;22.88;35.11;99157.77;1864567;76;28116;-64
2021/12/06 12:49:48;;;;;;;7.08;5.90;;;;;;;22.88;35.09;99155.03;1858616;76;28366;-64
2021/12/06 12:52:42;;;;;;;6.08;5.58;;;;;;;22.89;35.06;99151.76;1857165;76;28092;-65
2021/12/06 12:55:33;;;;;;;7.12;6.30;;;;;;;22.87;34.97;99147.87;1854747;76;28245;-64
2021/12/06 12:58:26;;;;;;;6.90;6.00;;;;;;;22.85;35.02;99150.03;1845694;77;28243;-65
2021/12/06 13:01:15;;;;;;;6.40;5.60;;;;;;;22.88;35.03;99153.66;1853856;76;28143;-64
2021/12/06 13:04:04;;;;;;;5.85;5.35;;;;;;;22.84;35.07;99148.38;1836616;77;28118;-64
2021/12/06 13:06:55;;;;;;;7.03;5.62;;;;;;;22.84;35.06;99142.91;1847839;76;28306;-65
2021/12/06 13:09:43;;;;;;;6.60;5.90;;;;;;;22.86;35.05;99142.65;1850962;76;28241;-65
2021/12/06 13:12:31;;;;;;;6.17;5.50;;;;;;;22.84;35.06;99147.02;1850018;75;28222;-65
2021/12/06 13:15:21;;;;;;;6.10;5.30;;;;;;;22.80;35.01;99147.19;1841293;76;28240;-65
2021/12/06 13:18:17;;;;;;;6.75;5.75;;;;;;;22.85;34.98;99147.86;1858470;76;28155;-65
2021/12/06 13:21:31;;;;;;;5.87;5.37;;;;;;;22.83;34.97;99156.30;1857260;76;28171;-65
2021/12/06 13:24:23;;;;;;;5.85;5.35;;;;;;;22.86;34.97;99162.66;1857559;76;28135;-65
2021/12/06 13:27:26;;;;;;;6.45;5.67;;;;;;;22.83;34.99;99159.03;1826256;78;28252;-65
2021/12/06 13:30:31;;;;;;;6.37;5.67;;;;;;;22.83;35.00;99149.45;1849529;76;28095;-65
2021/12/06 13:33:22;;;;;;;6.83;5.90;;;;;;;22.83;34.97;99152.19;1847189;77;33058;-66
2021/12/06 13:36:10;;;;;;;6.05;5.53;;;;;;;22.81;35.00;99155.70;1842374;76;28123;-67
2021/12/06 13:38:59;;;;;;;6.53;5.50;;;;;;;22.84;34.97;99157.13;1848822;76;28222;-64
2021/12/06 13:41:47;;;;;;;6.47;5.72;;;;;;;22.84;34.88;99153.86;1840577;77;28103;-66